Thief River Falls, MN

9:59 AM CST on February 20, 2017 (GMT -0600)
Thief River Falls Regional

Weather History for KTVF - September, 2013

Change the Weather History Date:

Wednesday, September 18, 2013

  Actual Average Record
Temperature  
Mean Temperature 65 °F -  
Max Temperature 73 °F 63 °F 89 °F (1989)
Min Temperature 57 °F 44 °F 30 °F (2012)
Growing Degree Days 15 (Base 50)    
Moisture  
Dew Point 58 °F    
Average Humidity 78    
Maximum Humidity 94    
Minimum Humidity 61    
Precipitation  
Precipitation 0.00 in - - ()
Sea Level Pressure  
Sea Level Pressure 29.70 in    
Wind  
Wind Speed 11 mph (SE)    
Max Wind Speed 22 mph    
Max Gust Speed 28 mph    
Visibility 8 miles    
Events Thunderstorm    
Averages and records for this station are not official NWS values.
T = Trace of Precipitation, MM = Missing Value Source: NWS Daily Summary

Daily Weather History Graph

Daily Weather History Graph

Search for Another Location

Airport or City:

Trip Planner

Search our weather history database for the weather conditions in past years. The results will help you decide how hot, cold, wet, or windy it might be!

Date:

Astronomy

Sep. 18, 2013 Rise Set
Actual Time 7:06 AM CDT 7:30 PM CDT
Civil Twilight 6:35 AM CDT 8:01 PM CDT
Nautical Twilight 5:58 AM CDT 8:38 PM CDT
Astronomical Twilight 5:19 AM CDT 9:16 PM CDT
Moon 6:52 PM CDT (9/18) 6:08 AM CDT (9/18)
Length of Visible Light 13h 26m
Length of Day
12h 23m
Waxing Gibbous, 99% of the Moon is Illuminated
Sep 18
Waxing Gibbous
Sep 19
Full
Sep 26
Last Quarter
Oct 4
New
Oct 11
First Quarter

Hourly Weather History & Observations

Time (CDT) Temp. Dew Point Humidity Pressure Visibility Wind Dir Wind Speed Gust Speed Precip Events Conditions
12:15 AM 60.8 °F 53.6 °F 77% 29.82 in 10.0 mi South 10.4 mph - N/A   Overcast
12:35 AM 60.8 °F 53.6 °F 77% 29.81 in 10.0 mi South 12.7 mph - N/A   Overcast
12:55 AM 60.8 °F 53.6 °F 77% 29.80 in 10.0 mi SSE 10.4 mph - N/A   Overcast
1:15 AM 60.8 °F 53.6 °F 77% 29.80 in 10.0 mi SSE 10.4 mph - N/A   Overcast
1:35 AM 60.8 °F 53.6 °F 77% 29.80 in 10.0 mi SSE 13.8 mph - N/A   Overcast
1:55 AM 60.8 °F 53.6 °F 77% 29.80 in 10.0 mi South 10.4 mph - N/A   Overcast
2:15 AM 60.8 °F 53.6 °F 77% 29.81 in 10.0 mi South 10.4 mph - N/A   Overcast
2:35 AM 60.8 °F 53.6 °F 77% 29.81 in 10.0 mi SSE 10.4 mph - N/A   Overcast
2:55 AM 59.0 °F 53.6 °F 82% 29.80 in 10.0 mi SSE 9.2 mph - N/A   Overcast
3:15 AM 59.0 °F 53.6 °F 82% 29.79 in 10.0 mi SSE 10.4 mph - N/A   Overcast
3:35 AM 59.0 °F 53.6 °F 82% 29.79 in 10.0 mi SSE 9.2 mph - N/A   Overcast
3:55 AM 59.0 °F 53.6 °F 82% 29.79 in 7.0 mi SSE 8.1 mph - N/A   Overcast
4:35 AM 57.2 °F 53.6 °F 88% 29.78 in 3.0 mi SSE 8.1 mph - N/A   Overcast
4:55 AM 57.2 °F 53.6 °F 88% 29.78 in 3.0 mi SSE 6.9 mph - N/A   Overcast
5:15 AM 57.2 °F 55.4 °F 94% 29.79 in 4.0 mi SSE 5.8 mph - N/A   Overcast
5:35 AM 57.2 °F 53.6 °F 88% 29.77 in 4.0 mi SSE 8.1 mph - N/A   Overcast
5:55 AM 57.2 °F 53.6 °F 88% 29.77 in 4.0 mi SE 6.9 mph - N/A   Overcast
6:15 AM 57.2 °F 53.6 °F 88% 29.77 in 3.0 mi SE 6.9 mph - N/A   Overcast
6:35 AM 57.2 °F 53.6 °F 88% 29.76 in 3.0 mi SE 9.2 mph - N/A   Overcast
6:55 AM 57.2 °F 53.6 °F 88% 29.76 in 4.0 mi ESE 6.9 mph - N/A   Overcast
7:15 AM 57.2 °F 53.6 °F 88% 29.76 in 2.0 mi SE 8.1 mph - N/A   Overcast
7:35 AM 57.2 °F 55.4 °F 94% 29.76 in 1.8 mi SE 9.2 mph - N/A   Overcast
7:55 AM 57.2 °F 55.4 °F 94% 29.77 in 1.2 mi SE 10.4 mph - N/A   Overcast
8:15 AM 57.2 °F 53.6 °F 88% 29.76 in 2.0 mi ESE 10.4 mph - N/A   Overcast
8:35 AM 57.2 °F 55.4 °F 94% 29.75 in 4.0 mi ESE 10.4 mph - N/A   Overcast
8:55 AM 59.0 °F 55.4 °F 88% 29.75 in 7.0 mi SE 10.4 mph - N/A   Overcast
9:15 AM 59.0 °F 55.4 °F 88% 29.76 in 9.0 mi SE 10.4 mph - N/A   Overcast
9:35 AM 59.0 °F 55.4 °F 88% 29.75 in 8.0 mi SSE 11.5 mph - N/A   Overcast
9:55 AM 60.8 °F 55.4 °F 82% 29.74 in 9.0 mi SE 11.5 mph - N/A   Overcast
10:15 AM 60.8 °F 55.4 °F 82% 29.71 in 10.0 mi ESE 13.8 mph - N/A   Overcast
10:35 AM 62.6 °F 55.4 °F 77% 29.71 in 10.0 mi SE 13.8 mph 17.3 mph N/A   Overcast
10:55 AM 64.4 °F 57.2 °F 77% 29.68 in 10.0 mi East 16.1 mph - N/A   Mostly Cloudy
11:15 AM 66.2 °F 57.2 °F 73% 29.71 in 10.0 mi SSE 12.7 mph - N/A   Scattered Clouds
11:35 AM 66.2 °F 57.2 °F 73% 29.70 in 10.0 mi SE 11.5 mph - N/A   Scattered Clouds
11:55 AM 66.2 °F 57.2 °F 73% 29.70 in 10.0 mi SE 15.0 mph - N/A   Mostly Cloudy
12:15 PM 69.8 °F 59.0 °F 68% 29.68 in 10.0 mi SE 16.1 mph 20.7 mph N/A   Mostly Cloudy
12:35 PM 71.6 °F 60.8 °F 69% 29.64 in 10.0 mi SE 19.6 mph - N/A   Scattered Clouds
12:55 PM 71.6 °F 59.0 °F 64% 29.62 in 10.0 mi SE 20.7 mph 26.5 mph N/A   Clear
1:15 PM 71.6 °F 59.0 °F 64% 29.63 in 10.0 mi SE 21.9 mph 27.6 mph N/A   Clear
1:35 PM 71.6 °F 59.0 °F 64% 29.66 in 10.0 mi SE 13.8 mph 20.7 mph N/A   Scattered Clouds
1:55 PM 73.4 °F 59.0 °F 61% 29.64 in 10.0 mi SE 13.8 mph - N/A   Mostly Cloudy
2:15 PM 73.4 °F 60.8 °F 65% 29.65 in 10.0 mi SSE 15.0 mph 19.6 mph N/A   Overcast
2:35 PM 73.4 °F 60.8 °F 65% 29.63 in 10.0 mi SSE 13.8 mph 17.3 mph N/A   Mostly Cloudy
2:55 PM 73.4 °F 60.8 °F 65% 29.63 in 10.0 mi South 13.8 mph - N/A   Mostly Cloudy
3:15 PM 73.4 °F 60.8 °F 65% 29.63 in 10.0 mi South 10.4 mph - N/A   Mostly Cloudy
3:35 PM 73.4 °F 62.6 °F 69% 29.63 in 10.0 mi South 10.4 mph - N/A   Mostly Cloudy
3:55 PM 73.4 °F 62.6 °F 69% 29.62 in 9.0 mi SSE 10.4 mph - N/A   Mostly Cloudy
4:15 PM 73.4 °F 62.6 °F 69% 29.63 in 10.0 mi SSE 12.7 mph - N/A   Mostly Cloudy
4:35 PM 73.4 °F 62.6 °F 69% 29.63 in 10.0 mi SSE 13.8 mph - N/A   Overcast
4:55 PM 71.6 °F 62.6 °F 73% 29.63 in 10.0 mi SSE 11.5 mph - N/A   Overcast
5:15 PM 71.6 °F 62.6 °F 73% 29.64 in 10.0 mi SSE 10.4 mph - N/A   Overcast
5:35 PM 71.6 °F 62.6 °F 73% 29.64 in 10.0 mi SSE 11.5 mph - N/A   Mostly Cloudy
5:55 PM 71.6 °F 62.6 °F 73% 29.63 in 10.0 mi SE 9.2 mph - N/A   Mostly Cloudy
6:15 PM 71.6 °F 62.6 °F 73% 29.62 in 10.0 mi SE 11.5 mph - N/A   Partly Cloudy
6:35 PM 71.6 °F 62.6 °F 73% 29.62 in 10.0 mi SE 9.2 mph - N/A   Scattered Clouds
6:55 PM 71.6 °F 62.6 °F 73% 29.62 in 10.0 mi SE 9.2 mph - N/A   Partly Cloudy
7:15 PM 69.8 °F 62.6 °F 78% 29.61 in 10.0 mi SE 11.5 mph - N/A   Partly Cloudy
7:35 PM 69.8 °F 62.6 °F 78% 29.61 in 10.0 mi ESE 9.2 mph - N/A   Clear
7:55 PM 69.8 °F 62.6 °F 78% 29.61 in 10.0 mi ESE 10.4 mph - N/A   Clear
8:15 PM 69.8 °F 62.6 °F 78% 29.61 in 10.0 mi ESE 9.2 mph - N/A   Clear
8:35 PM 69.8 °F 62.6 °F 78% 29.61 in 10.0 mi SE 11.5 mph - N/A   Clear
8:55 PM 69.8 °F 62.6 °F 78% 29.61 in 10.0 mi SE 11.5 mph - N/A   Clear
9:15 PM 69.8 °F 62.6 °F 78% 29.62 in 10.0 mi SE 11.5 mph - N/A   Clear
9:35 PM 69.8 °F 62.6 °F 78% 29.63 in 10.0 mi SE 10.4 mph - N/A Thunderstorm Clear
9:55 PM 69.8 °F 62.6 °F 78% 29.63 in 10.0 mi SSE 8.1 mph - N/A Thunderstorm Clear
10:15 PM 69.8 °F 62.6 °F 78% 29.63 in 10.0 mi SE 11.5 mph - N/A   Clear
10:35 PM 69.8 °F 62.6 °F 78% 29.62 in 10.0 mi SE 11.5 mph - N/A Thunderstorm Clear
10:55 PM 69.8 °F 62.6 °F 78% 29.61 in 8.0 mi SE 10.4 mph - N/A   Clear
11:15 PM 69.8 °F 62.6 °F 78% 29.62 in 8.0 mi SE 9.2 mph - N/A   Clear
11:35 PM 69.8 °F 62.6 °F 78% 29.61 in 8.0 mi ESE 6.9 mph - N/A   Partly Cloudy
11:55 PM 69.8 °F 62.6 °F 78% 29.64 in 8.0 mi SSE 3.5 mph - N/A Thunderstorm Scattered Clouds